Terminal Aerodrome Forecast
Issued by NWS Chicago, IL

Home | Current Version | Previous Version | Graphics & Text | Print | Product List | Glossary On
Versions: 1 2 3 4 5 6 7 8 9 10 11 12 13 14 15 16 17 18 19 20 21 22 23 24
763
FTUS43 KLOT 131737
TAFRFD
TAF
KRFD 131737Z 1318/1418 23014G21KT 6SM -SN SCT030 OVC080
      TEMPO 1318/1319 4SM -SN BKN020
     FM132000 32019G30KT 6SM -SHSN OVC020
     FM140200 35016G25KT P6SM -SHSN OVC020
     FM140800 34012KT P6SM FEW040 SCT250=

USA.gov is the U.S. government's official web portal to all federal, state and local government web resources and services.